createdAt,value
2024-04-25T00:00:12.719Z,7.73
2024-04-25T00:02:43.941Z,7.71
2024-04-25T00:05:13.637Z,7.71
2024-04-25T00:07:43.306Z,7.73
2024-04-25T00:10:13.035Z,7.71
2024-04-25T00:12:45.781Z,7.66
2024-04-25T00:15:15.483Z,7.63
2024-04-25T00:17:45.266Z,7.56
2024-04-25T00:20:15.013Z,7.53
2024-04-25T00:22:44.810Z,7.60
2024-04-25T00:25:14.538Z,7.68
2024-04-25T00:27:46.782Z,7.63
2024-04-25T00:30:16.726Z,7.64
2024-04-25T00:32:46.614Z,7.69
2024-04-25T00:35:16.735Z,7.74
2024-04-25T00:37:46.426Z,7.75
2024-04-25T00:40:16.654Z,7.76
2024-04-25T00:42:48.937Z,7.72
2024-04-25T00:45:18.669Z,7.74
2024-04-25T00:47:50.019Z,7.76
2024-04-25T00:50:22.163Z,7.78
2024-04-25T00:52:52.215Z,7.78
2024-04-25T00:55:22.026Z,7.79
2024-04-25T00:57:56.041Z,7.74
2024-04-25T01:00:28.674Z,7.73
2024-04-25T01:02:59.657Z,7.77
2024-04-25T01:05:32.122Z,7.77
2024-04-25T01:08:02.458Z,7.76
2024-04-25T01:10:32.101Z,7.74
2024-04-25T01:13:04.780Z,7.76
2024-04-25T01:15:34.814Z,7.75
2024-04-25T01:18:04.748Z,7.79
2024-04-25T01:20:36.032Z,7.77
2024-04-25T01:23:12.502Z,7.78
2024-04-25T01:25:47.286Z,7.74
2024-04-25T01:28:19.309Z,7.76
2024-04-25T01:30:50.166Z,7.76
2024-04-25T01:33:20.755Z,7.77
2024-04-25T01:35:50.589Z,7.71
2024-04-25T01:38:21.823Z,7.64
2024-04-25T01:40:54.221Z,7.63
2024-04-25T01:43:24.165Z,7.64
2024-04-25T01:45:53.866Z,7.63
2024-04-25T01:48:23.710Z,7.62
2024-04-25T01:50:53.787Z,7.52
2024-04-25T01:53:24.950Z,7.45
2024-04-25T01:55:57.341Z,7.37
2024-04-25T01:58:27.016Z,7.34
2024-04-25T02:00:56.768Z,7.38
2024-04-25T02:03:26.742Z,7.40
2024-04-25T02:05:56.468Z,7.39
2024-04-25T02:08:26.325Z,7.39
2024-04-25T02:10:58.822Z,7.40
2024-04-25T02:13:28.839Z,7.40
2024-04-25T02:15:58.506Z,7.43
2024-04-25T02:18:28.198Z,7.43
2024-04-25T02:21:13.983Z,7.39
2024-04-25T02:23:59.351Z,7.34
2024-04-25T02:26:31.650Z,7.32
2024-04-25T02:29:01.281Z,7.33
2024-04-25T02:31:33.126Z,7.33
2024-04-25T02:34:02.970Z,7.36
2024-04-25T02:36:32.698Z,7.34
2024-04-25T02:39:02.359Z,7.34
2024-04-25T02:41:34.724Z,7.35
2024-04-25T02:44:01.844Z,7.30
2024-04-25T02:46:31.517Z,7.32
2024-04-25T02:48:59.527Z,7.30
2024-04-25T02:51:29.314Z,7.28
2024-04-25T02:53:56.377Z,7.27
2024-04-25T02:56:26.163Z,7.23
2024-04-25T02:58:56.036Z,7.20
2024-04-25T03:01:25.731Z,7.13
2024-04-25T03:03:55.514Z,7.11
2024-04-25T03:06:22.931Z,7.13
2024-04-25T03:08:52.591Z,7.15
2024-04-25T03:11:19.757Z,7.16
2024-04-25T03:13:49.457Z,7.15
2024-04-25T03:16:19.127Z,7.11
2024-04-25T03:18:48.823Z,7.14
2024-04-25T03:21:16.018Z,7.13
2024-04-25T03:23:45.909Z,7.08
2024-04-25T03:26:13.089Z,7.06
2024-04-25T03:28:42.731Z,7.06
2024-04-25T03:31:09.849Z,7.08
2024-04-25T03:33:42.250Z,7.04
2024-04-25T03:36:09.492Z,7.01
2024-04-25T03:38:39.312Z,6.96
2024-04-25T03:41:09.022Z,6.98
2024-04-25T03:43:38.667Z,6.98
2024-04-25T03:46:09.485Z,6.99
2024-04-25T03:48:41.843Z,7.00
2024-04-25T03:51:12.185Z,6.97
2024-04-25T03:53:41.895Z,6.97
2024-04-25T03:56:11.621Z,6.92
2024-04-25T03:58:41.642Z,6.90
2024-04-25T04:01:11.309Z,6.83
2024-04-25T04:03:44.071Z,6.80
2024-04-25T04:06:13.804Z,6.78
2024-04-25T04:08:43.733Z,6.77
2024-04-25T04:11:13.490Z,6.80
2024-04-25T04:13:43.181Z,6.85
2024-04-25T04:16:12.913Z,6.84
2024-04-25T04:18:45.296Z,6.88
2024-04-25T04:21:14.265Z,6.87
2024-04-25T04:23:44.647Z,6.88
2024-04-25T04:26:14.395Z,6.89
2024-04-25T04:28:44.104Z,6.88
2024-04-25T04:31:13.757Z,6.94
2024-04-25T04:33:46.181Z,6.97
2024-04-25T04:36:15.972Z,6.97
2024-04-25T04:38:45.610Z,6.94
2024-04-25T04:41:15.706Z,6.94
2024-04-25T04:43:45.940Z,6.90
2024-04-25T04:46:15.699Z,6.94
2024-04-25T04:48:49.977Z,6.95
2024-04-25T04:51:21.553Z,6.96
2024-04-25T04:53:52.350Z,6.96
2024-04-25T04:56:22.197Z,6.93
2024-04-25T04:58:51.890Z,6.96
2024-04-25T05:01:21.523Z,6.94
2024-04-25T05:03:53.852Z,6.94
2024-04-25T05:06:23.506Z,6.90
2024-04-25T05:08:54.320Z,6.96
2024-04-25T05:11:24.029Z,6.95
2024-04-25T05:13:53.912Z,6.91
2024-04-25T05:16:23.615Z,6.92
2024-04-25T05:18:56.002Z,6.99
2024-04-25T05:21:26.498Z,6.99
2024-04-25T05:23:56.138Z,6.98
2024-04-25T05:26:25.861Z,6.98
2024-04-25T05:28:55.575Z,6.99
2024-04-25T05:31:25.243Z,6.99
2024-04-25T05:33:58.435Z,7.01
2024-04-25T05:36:28.374Z,7.04
2024-04-25T05:38:58.081Z,7.09
2024-04-25T05:41:27.864Z,7.13
2024-04-25T05:43:57.944Z,7.13
2024-04-25T05:46:28.195Z,7.21
2024-04-25T05:49:00.570Z,7.21
2024-04-25T05:51:30.442Z,7.20
2024-04-25T05:54:00.137Z,7.27
2024-04-25T05:56:30.459Z,7.32
2024-04-25T05:59:00.653Z,7.40
2024-04-25T06:01:30.350Z,7.42
2024-04-25T06:04:02.669Z,7.42
2024-04-25T06:06:33.984Z,7.40
2024-04-25T06:09:03.681Z,7.42
2024-04-25T06:11:34.690Z,7.42
2024-04-25T06:14:04.837Z,7.46
2024-04-25T06:16:34.586Z,7.45
2024-04-25T06:19:06.923Z,7.50
2024-04-25T06:21:36.615Z,7.50
2024-04-25T06:24:06.824Z,7.52
2024-04-25T06:26:37.894Z,7.51
2024-04-25T06:29:07.942Z,7.53
2024-04-25T06:31:38.009Z,7.56
2024-04-25T06:34:11.977Z,7.56
2024-04-25T06:36:42.104Z,7.57
2024-04-25T06:39:11.820Z,7.61
2024-04-25T06:41:47.128Z,7.60
2024-04-25T06:44:29.429Z,7.64
2024-04-25T06:47:04.362Z,7.67
2024-04-25T06:49:36.741Z,7.66
2024-04-25T06:52:06.736Z,7.61
2024-04-25T06:54:36.533Z,7.61
2024-04-25T06:57:06.248Z,7.68
2024-04-25T06:59:36.283Z,7.68
2024-04-25T07:02:08.224Z,7.68
2024-04-25T07:04:40.571Z,7.67
2024-04-25T07:07:10.292Z,7.68
2024-04-25T07:09:40.000Z,7.76
2024-04-25T07:12:09.773Z,7.80
2024-04-25T07:14:39.540Z,7.83
2024-04-25T07:17:09.542Z,7.82
2024-04-25T07:19:41.847Z,7.78
2024-04-25T07:22:11.739Z,7.74
2024-04-25T07:24:41.403Z,7.73
2024-04-25T07:27:11.082Z,7.77
2024-04-25T07:29:47.651Z,7.74
2024-04-25T07:32:18.675Z,7.68
2024-04-25T07:34:51.093Z,7.64
2024-04-25T07:37:24.548Z,7.68
2024-04-25T07:39:54.246Z,7.68
2024-04-25T07:42:24.043Z,7.69
2024-04-25T07:44:55.391Z,7.74
2024-04-25T07:47:25.192Z,7.80
2024-04-25T07:49:57.699Z,7.81
2024-04-25T07:52:30.072Z,7.80
2024-04-25T07:55:01.590Z,7.90
2024-04-25T07:57:31.424Z,7.96
2024-04-25T08:00:01.145Z,8.00
2024-04-25T08:02:30.897Z,7.97
2024-04-25T08:05:03.405Z,7.98
2024-04-25T08:07:33.170Z,7.96
2024-04-25T08:10:02.830Z,8.03
2024-04-25T08:12:33.492Z,8.04
2024-04-25T08:15:03.249Z,8.17
2024-04-25T08:17:33.954Z,8.25
2024-04-25T08:20:08.313Z,8.28
2024-04-25T08:22:38.006Z,8.32
2024-04-25T08:25:08.005Z,8.28
2024-04-25T08:27:37.731Z,8.26
2024-04-25T08:30:08.487Z,8.20
2024-04-25T08:32:38.371Z,8.20
2024-04-25T08:35:11.588Z,8.22
2024-04-25T08:37:41.346Z,8.32
2024-04-25T08:40:13.085Z,8.39
2024-04-25T08:42:49.485Z,8.48
2024-04-25T08:45:19.349Z,8.49
2024-04-25T08:47:52.550Z,8.49
2024-04-25T08:50:26.955Z,8.53
2024-04-25T08:52:58.462Z,8.69
2024-04-25T08:55:29.082Z,8.91
2024-04-25T08:58:00.252Z,9.11
2024-04-25T09:00:29.898Z,9.20
2024-04-25T09:03:01.883Z,9.24
2024-04-25T09:05:37.054Z,9.35
2024-04-25T09:08:12.732Z,9.46
2024-04-25T09:10:42.958Z,9.53
2024-04-25T09:13:12.984Z,9.58
2024-04-25T09:15:42.889Z,9.63
2024-04-25T09:18:12.981Z,9.68
2024-04-25T09:20:45.965Z,9.74
2024-04-25T09:23:15.885Z,9.69
2024-04-25T09:25:45.615Z,9.64
2024-04-25T09:28:15.913Z,9.91
2024-04-25T09:30:46.015Z,10.06
2024-04-25T09:33:15.928Z,9.90
2024-04-25T09:35:50.025Z,9.77
2024-04-25T09:38:20.114Z,9.65
2024-04-25T09:40:51.546Z,9.50
2024-04-25T09:43:22.290Z,9.35
2024-04-25T09:45:53.395Z,9.19
2024-04-25T09:48:24.821Z,8.99
2024-04-25T09:51:06.377Z,8.79
2024-04-25T09:53:43.827Z,8.52
2024-04-25T09:56:23.074Z,8.42
2024-04-25T09:58:58.261Z,8.39
2024-04-25T10:01:31.891Z,8.46
2024-04-25T10:04:03.474Z,8.50
2024-04-25T10:06:37.197Z,8.60
2024-04-25T10:09:08.603Z,8.80
2024-04-25T10:11:39.920Z,9.19
2024-04-25T10:14:09.613Z,9.56
2024-04-25T10:16:39.895Z,9.72
2024-04-25T10:19:09.866Z,9.71
2024-04-25T10:21:49.314Z,9.69
2024-04-25T10:24:19.022Z,9.66
2024-04-25T10:26:49.927Z,9.58
2024-04-25T10:29:19.835Z,9.41
2024-04-25T10:31:49.717Z,9.36
2024-04-25T10:34:19.465Z,9.20
2024-04-25T10:36:51.806Z,9.03
2024-04-25T10:39:21.600Z,8.88
2024-04-25T10:41:51.866Z,8.84
2024-04-25T10:44:21.771Z,8.89
2024-04-25T10:46:51.945Z,9.03
2024-04-25T10:49:22.068Z,9.22
2024-04-25T10:51:55.043Z,9.47
2024-04-25T10:54:24.854Z,9.73
2024-04-25T10:56:54.698Z,9.85
2024-04-25T10:59:31.092Z,9.89
2024-04-25T11:02:03.414Z,9.86
2024-04-25T11:04:36.694Z,9.86
2024-04-25T11:07:10.572Z,9.93
2024-04-25T11:09:40.631Z,9.90
2024-04-25T11:12:13.583Z,9.90
2024-04-25T11:14:44.004Z,9.89
2024-04-25T11:17:16.563Z,9.87
2024-04-25T11:19:50.091Z,9.87
2024-04-25T11:22:30.858Z,9.84
2024-04-25T11:25:21.776Z,9.74
2024-04-25T11:27:52.423Z,9.69
2024-04-25T11:30:22.236Z,9.75
2024-04-25T11:32:52.078Z,9.79
2024-04-25T11:35:23.418Z,9.87
2024-04-25T11:37:58.201Z,9.96
2024-04-25T11:40:41.270Z,10.08
2024-04-25T11:43:11.224Z,10.30
2024-04-25T11:45:39.097Z,10.48
2024-04-25T11:48:11.993Z,10.56
2024-04-25T11:50:42.140Z,10.71
2024-04-25T11:53:14.838Z,10.87
2024-04-25T11:55:46.396Z,11.05
2024-04-25T11:58:16.157Z,11.28
2024-04-25T12:00:49.633Z,11.43
2024-04-25T12:03:20.387Z,11.38
2024-04-25T12:05:50.453Z,11.33
2024-04-25T12:08:22.842Z,11.27
2024-04-25T12:10:54.450Z,11.21
2024-04-25T12:13:24.438Z,11.08
2024-04-25T12:15:54.132Z,10.87
2024-04-25T12:18:26.880Z,10.69
2024-04-25T12:20:58.996Z,10.43
2024-04-25T12:23:34.926Z,10.21
2024-04-25T12:26:04.871Z,9.96
2024-04-25T12:28:35.726Z,9.76
2024-04-25T12:31:08.261Z,9.66
2024-04-25T12:33:38.827Z,9.56
2024-04-25T12:36:09.096Z,9.50
2024-04-25T12:38:41.394Z,9.47
2024-04-25T12:41:11.172Z,9.54
2024-04-25T12:43:40.815Z,9.59
2024-04-25T12:46:10.451Z,9.69
2024-04-25T12:48:40.155Z,9.89
2024-04-25T12:51:09.878Z,10.11
2024-04-25T12:53:43.782Z,10.27
2024-04-25T12:56:13.839Z,10.43
2024-04-25T12:58:43.580Z,10.57
2024-04-25T13:01:13.295Z,10.73
2024-04-25T13:03:43.804Z,10.92
2024-04-25T13:06:13.556Z,11.04
2024-04-25T13:08:48.105Z,11.03
2024-04-25T13:11:18.025Z,11.02
2024-04-25T13:13:47.794Z,11.14
2024-04-25T13:16:17.564Z,11.26
2024-04-25T13:18:47.603Z,11.28
2024-04-25T13:21:17.402Z,11.21
2024-04-25T13:23:49.902Z,11.16
2024-04-25T13:26:25.502Z,11.09
2024-04-25T13:28:55.714Z,10.96
2024-04-25T13:31:26.996Z,10.94
2024-04-25T13:33:57.252Z,11.10
2024-04-25T13:36:28.400Z,11.23
2024-04-25T13:39:00.726Z,11.35
2024-04-25T13:41:30.632Z,11.33
2024-04-25T13:44:00.271Z,11.33
2024-04-25T13:46:31.937Z,11.48
2024-04-25T13:49:01.729Z,11.44
2024-04-25T13:51:31.638Z,11.38
2024-04-25T13:54:07.642Z,11.30
2024-04-25T13:56:37.730Z,11.22
2024-04-25T13:59:07.574Z,11.12
2024-04-25T14:01:37.342Z,11.01
2024-04-25T14:04:08.325Z,10.97
2024-04-25T14:06:42.433Z,10.97
2024-04-25T14:09:14.949Z,11.07
2024-04-25T14:11:51.760Z,11.15
2024-04-25T14:14:22.449Z,11.21
2024-04-25T14:16:53.861Z,11.25
2024-04-25T14:19:24.175Z,11.29
2024-04-25T14:21:54.117Z,11.32
2024-04-25T14:24:28.284Z,11.37
2024-04-25T14:27:16.327Z,11.35
2024-04-25T14:29:46.093Z,11.27
2024-04-25T14:32:16.013Z,11.22
2024-04-25T14:34:45.771Z,11.11
2024-04-25T14:37:18.006Z,11.10
2024-04-25T14:39:50.372Z,11.11
2024-04-25T14:42:20.209Z,11.09
2024-04-25T14:44:50.221Z,11.10
2024-04-25T14:47:20.209Z,11.07
2024-04-25T14:49:49.928Z,11.13
2024-04-25T14:52:19.684Z,11.23
2024-04-25T14:54:51.976Z,11.32
2024-04-25T14:57:21.646Z,11.34
2024-04-25T14:59:51.604Z,11.43
2024-04-25T15:02:26.089Z,11.50
2024-04-25T15:04:57.519Z,11.58
2024-04-25T15:07:27.243Z,11.55
2024-04-25T15:09:59.528Z,11.53
2024-04-25T15:12:30.180Z,11.56
2024-04-25T15:15:08.366Z,11.52
2024-04-25T15:17:42.958Z,11.46
2024-04-25T15:20:14.036Z,11.40
2024-04-25T15:22:43.857Z,11.31
2024-04-25T15:25:16.414Z,11.17
2024-04-25T15:27:46.058Z,11.03
2024-04-25T15:30:15.768Z,10.90
2024-04-25T15:32:45.795Z,10.87
2024-04-25T15:35:15.653Z,10.90
2024-04-25T15:37:45.526Z,10.95
2024-04-25T15:40:18.162Z,10.98
2024-04-25T15:42:49.731Z,10.97
2024-04-25T15:45:19.532Z,10.99
2024-04-25T15:47:49.426Z,11.00
2024-04-25T15:50:19.680Z,10.98
2024-04-25T15:52:50.140Z,10.98
2024-04-25T15:55:22.466Z,11.04
2024-04-25T15:57:54.663Z,11.06
2024-04-25T16:00:24.362Z,11.08
2024-04-25T16:02:54.089Z,11.10
2024-04-25T16:05:23.857Z,11.13
2024-04-25T16:07:53.505Z,11.14
2024-04-25T16:10:26.012Z,11.22
2024-04-25T16:12:55.807Z,11.45
2024-04-25T16:15:25.763Z,11.63
2024-04-25T16:17:55.874Z,11.73
2024-04-25T16:20:25.667Z,11.88
2024-04-25T16:22:56.111Z,11.96
2024-04-25T16:25:25.839Z,11.94
2024-04-25T16:27:55.474Z,11.85
2024-04-25T16:30:25.965Z,11.79
2024-04-25T16:32:55.758Z,11.70
2024-04-25T16:35:25.487Z,11.61
2024-04-25T16:37:57.082Z,11.55
2024-04-25T16:40:32.840Z,11.44
2024-04-25T16:43:02.584Z,11.44
2024-04-25T16:45:32.366Z,11.33
2024-04-25T16:48:02.392Z,11.23
2024-04-25T16:50:32.065Z,11.15
2024-04-25T16:53:01.946Z,11.16
2024-04-25T16:55:34.257Z,11.17
2024-04-25T16:58:04.260Z,11.22
2024-04-25T17:00:35.605Z,11.24
2024-04-25T17:03:06.076Z,11.23
2024-04-25T17:05:36.211Z,11.18
2024-04-25T17:08:05.990Z,11.10
2024-04-25T17:10:39.084Z,11.08
2024-04-25T17:13:08.741Z,11.10
2024-04-25T17:15:38.564Z,11.15
2024-04-25T17:18:08.705Z,11.16
2024-04-25T17:20:38.407Z,11.13
2024-04-25T17:23:08.233Z,11.09
2024-04-25T17:25:40.476Z,11.06
2024-04-25T17:28:10.423Z,11.01
2024-04-25T17:30:40.099Z,10.99
2024-04-25T17:33:09.950Z,10.99
2024-04-25T17:35:39.721Z,11.01
2024-04-25T17:38:09.445Z,10.94
2024-04-25T17:40:41.838Z,10.90
2024-04-25T17:43:11.903Z,10.89
2024-04-25T17:45:41.579Z,10.87
2024-04-25T17:48:11.364Z,10.82
2024-04-25T17:50:41.162Z,10.80
2024-04-25T17:53:10.817Z,10.78
2024-04-25T17:55:43.114Z,10.76
2024-04-25T17:58:12.978Z,10.71
2024-04-25T18:00:42.641Z,10.64
2024-04-25T18:03:12.614Z,10.56
2024-04-25T18:05:42.658Z,10.56
2024-04-25T18:08:14.678Z,10.46
2024-04-25T18:10:47.096Z,10.39
2024-04-25T18:13:16.749Z,10.31
2024-04-25T18:15:46.540Z,10.26
2024-04-25T18:18:16.456Z,10.18
2024-04-25T18:20:46.408Z,10.09
2024-04-25T18:23:16.602Z,10.06
2024-04-25T18:25:48.922Z,10.02
2024-04-25T18:28:22.423Z,9.93
2024-04-25T18:30:52.136Z,9.90
2024-04-25T18:33:21.891Z,9.81
2024-04-25T18:35:57.463Z,9.73
2024-04-25T18:38:27.178Z,9.67
2024-04-25T18:40:59.734Z,9.63
2024-04-25T18:43:29.458Z,9.63
2024-04-25T18:45:59.120Z,9.53
2024-04-25T18:48:28.967Z,9.49
2024-04-25T18:50:58.680Z,9.42
2024-04-25T18:53:28.418Z,9.38
2024-04-25T18:56:00.888Z,9.31
2024-04-25T18:58:30.564Z,9.28
2024-04-25T19:01:00.314Z,9.28
2024-04-25T19:03:30.128Z,9.23
2024-04-25T19:05:59.798Z,9.22
2024-04-25T19:08:29.856Z,9.17
2024-04-25T19:11:02.481Z,9.13
2024-04-25T19:13:32.160Z,9.11
2024-04-25T19:16:02.603Z,9.04
2024-04-25T19:18:32.405Z,9.03
2024-04-25T19:21:04.595Z,9.00
2024-04-25T19:23:34.402Z,8.95
2024-04-25T19:26:06.850Z,8.87
2024-04-25T19:28:36.545Z,8.86
2024-04-25T19:31:07.049Z,8.77
2024-04-25T19:33:37.632Z,8.72
2024-04-25T19:36:09.227Z,8.68
2024-04-25T19:38:38.912Z,8.59
2024-04-25T19:41:11.339Z,8.54
2024-04-25T19:43:41.013Z,8.51
2024-04-25T19:46:13.391Z,8.45
2024-04-25T19:48:45.544Z,8.42
2024-04-25T19:51:15.442Z,8.39
2024-04-25T19:53:45.525Z,8.35
2024-04-25T19:56:17.918Z,8.32
2024-04-25T19:58:47.689Z,8.27
2024-04-25T20:01:18.075Z,8.23
2024-04-25T20:03:48.628Z,8.19
2024-04-25T20:06:20.595Z,8.13
2024-04-25T20:08:50.356Z,8.11
2024-04-25T20:11:23.041Z,8.09
2024-04-25T20:13:53.537Z,8.09
2024-04-25T20:16:23.189Z,8.09
2024-04-25T20:19:08.971Z,8.02
2024-04-25T20:21:43.179Z,7.97
2024-04-25T20:24:13.058Z,7.91
2024-04-25T20:26:45.452Z,7.88
2024-04-25T20:29:15.136Z,7.85
2024-04-25T20:31:44.756Z,7.79
2024-04-25T20:34:14.632Z,7.73
2024-04-25T20:36:46.829Z,7.72
2024-04-25T20:39:16.505Z,7.67
2024-04-25T20:41:49.103Z,7.65
2024-04-25T20:44:19.628Z,7.62
2024-04-25T20:46:49.347Z,7.62
2024-04-25T20:49:19.061Z,7.58
2024-04-25T20:51:48.756Z,7.54
2024-04-25T20:54:18.400Z,7.57
2024-04-25T20:56:50.691Z,7.57
2024-04-25T20:59:20.340Z,7.52
2024-04-25T21:01:50.016Z,7.50
2024-04-25T21:04:19.758Z,7.46
2024-04-25T21:06:49.500Z,7.40
2024-04-25T21:09:20.185Z,7.34
2024-04-25T21:11:52.494Z,7.30
2024-04-25T21:14:22.170Z,7.25
2024-04-25T21:16:53.067Z,7.23
2024-04-25T21:19:23.577Z,7.20
2024-04-25T21:21:53.321Z,7.15
2024-04-25T21:24:23.018Z,7.09
2024-04-25T21:26:55.300Z,7.08
2024-04-25T21:29:25.572Z,7.07
2024-04-25T21:31:55.698Z,7.04
2024-04-25T21:34:25.528Z,7.03
2024-04-25T21:36:55.213Z,7.04
2024-04-25T21:39:24.902Z,7.02
2024-04-25T21:41:57.230Z,6.98
2024-04-25T21:44:27.013Z,6.97
2024-04-25T21:46:56.706Z,6.94
2024-04-25T21:49:26.773Z,6.92
2024-04-25T21:51:56.605Z,6.90
2024-04-25T21:54:26.238Z,6.86
2024-04-25T21:56:58.587Z,6.81
2024-04-25T21:59:28.274Z,6.78
2024-04-25T22:01:58.887Z,6.77
2024-04-25T22:04:28.529Z,6.74
2024-04-25T22:06:58.379Z,6.70
2024-04-25T22:09:28.118Z,6.71
2024-04-25T22:12:00.525Z,6.69
2024-04-25T22:14:30.576Z,6.69
2024-04-25T22:17:00.238Z,6.66
2024-04-25T22:19:30.040Z,6.68
2024-04-25T22:21:59.753Z,6.69
2024-04-25T22:24:29.703Z,6.64
2024-04-25T22:27:02.620Z,6.62
2024-04-25T22:29:32.336Z,6.55
2024-04-25T22:32:02.033Z,6.50
2024-04-25T22:34:33.000Z,6.50
2024-04-25T22:37:02.749Z,6.49
2024-04-25T22:39:32.424Z,6.43
2024-04-25T22:42:04.727Z,6.43
2024-04-25T22:44:35.489Z,6.41
2024-04-25T22:47:05.254Z,6.42
2024-04-25T22:49:34.875Z,6.43
2024-04-25T22:52:04.637Z,6.46
2024-04-25T22:54:34.332Z,6.45
2024-04-25T22:57:07.460Z,6.51
2024-04-25T22:59:37.258Z,6.51
2024-04-25T23:02:07.113Z,6.53
2024-04-25T23:04:37.287Z,6.53
2024-04-25T23:07:07.215Z,6.55
2024-04-25T23:09:37.471Z,6.57
2024-04-25T23:12:11.454Z,6.66
2024-04-25T23:14:41.335Z,6.71
2024-04-25T23:17:11.085Z,6.73
2024-04-25T23:19:38.318Z,6.80
2024-04-25T23:22:08.491Z,6.78
2024-04-25T23:24:38.135Z,6.80
2024-04-25T23:27:10.403Z,6.80
2024-04-25T23:29:40.066Z,6.80
2024-04-25T23:32:10.044Z,6.81
2024-04-25T23:34:40.663Z,6.83
2024-04-25T23:37:10.366Z,6.85
2024-04-25T23:39:42.212Z,6.83
2024-04-25T23:42:14.590Z,6.82
2024-04-25T23:44:44.588Z,6.81
2024-04-25T23:47:14.263Z,6.79
2024-04-25T23:49:44.761Z,6.72
2024-04-25T23:52:20.738Z,6.67
2024-04-25T23:54:50.698Z,6.67
2024-04-25T23:57:22.992Z,6.71
2024-04-25T23:59:52.712Z,6.70
